sensor_id;sensor_type;location;lat;lon;timestamp;temperature;humidity
58554;DHT22;48119;53.218;6.576;2023-12-20T00:01:24;10.20;99.90
58554;DHT22;48119;53.218;6.576;2023-12-20T00:03:50;10.20;99.90
58554;DHT22;48119;53.218;6.576;2023-12-20T00:06:15;10.30;99.90
58554;DHT22;48119;53.218;6.576;2023-12-20T00:08:41;10.20;99.90
58554;DHT22;48119;53.218;6.576;2023-12-20T00:11:07;10.20;99.90
58554;DHT22;48119;53.218;6.576;2023-12-20T00:13:32;10.20;99.90
58554;DHT22;48119;53.218;6.576;2023-12-20T00:15:58;10.20;99.90
58554;DHT22;48119;53.218;6.576;2023-12-20T00:18:24;10.20;99.90
58554;DHT22;48119;53.218;6.576;2023-12-20T00:20:50;10.20;99.90
58554;DHT22;48119;53.218;6.576;2023-12-20T00:23:16;10.20;99.90
58554;DHT22;48119;53.218;6.576;2023-12-20T00:25:42;10.10;99.90
58554;DHT22;48119;53.218;6.576;2023-12-20T00:28:07;10.20;99.90
58554;DHT22;48119;53.218;6.576;2023-12-20T00:30:33;10.20;99.90
58554;DHT22;48119;53.218;6.576;2023-12-20T00:32:59;10.20;99.90
58554;DHT22;48119;53.218;6.576;2023-12-20T00:35:27;10.20;99.90
58554;DHT22;48119;53.218;6.576;2023-12-20T00:37:52;10.20;99.90
58554;DHT22;48119;53.218;6.576;2023-12-20T00:40:18;10.20;99.90
58554;DHT22;48119;53.218;6.576;2023-12-20T00:42:44;10.20;99.90
58554;DHT22;48119;53.218;6.576;2023-12-20T00:45:09;10.10;99.90
58554;DHT22;48119;53.218;6.576;2023-12-20T00:47:35;10.20;99.90
58554;DHT22;48119;53.218;6.576;2023-12-20T00:50:01;10.10;99.90
58554;DHT22;48119;53.218;6.576;2023-12-20T00:52:27;10.10;99.90
58554;DHT22;48119;53.218;6.576;2023-12-20T00:54:52;10.10;99.90
58554;DHT22;48119;53.218;6.576;2023-12-20T00:57:18;10.20;99.90
58554;DHT22;48119;53.218;6.576;2023-12-20T00:59:44;10.10;99.90
58554;DHT22;48119;53.218;6.576;2023-12-20T01:02:10;10.10;99.90
58554;DHT22;48119;53.218;6.576;2023-12-20T01:04:36;10.10;99.90
58554;DHT22;48119;53.218;6.576;2023-12-20T01:07:01;10.10;99.90
58554;DHT22;48119;53.218;6.576;2023-12-20T01:09:27;10.10;99.90
58554;DHT22;48119;53.218;6.576;2023-12-20T01:11:53;10.10;99.90
58554;DHT22;48119;53.218;6.576;2023-12-20T01:14:19;10.10;99.90
58554;DHT22;48119;53.218;6.576;2023-12-20T01:16:45;10.10;99.90
58554;DHT22;48119;53.218;6.576;2023-12-20T01:19:11;10.10;99.90
58554;DHT22;48119;53.218;6.576;2023-12-20T01:21:37;10.00;99.90
58554;DHT22;48119;53.218;6.576;2023-12-20T01:24:03;10.10;99.90
58554;DHT22;48119;53.218;6.576;2023-12-20T01:26:28;10.10;99.90
58554;DHT22;48119;53.218;6.576;2023-12-20T01:28:54;10.10;99.90
58554;DHT22;48119;53.218;6.576;2023-12-20T01:31:20;10.10;99.90
58554;DHT22;48119;53.218;6.576;2023-12-20T01:33:45;10.10;99.90
58554;DHT22;48119;53.218;6.576;2023-12-20T01:36:11;10.10;99.90
58554;DHT22;48119;53.218;6.576;2023-12-20T01:38:37;10.10;99.90
58554;DHT22;48119;53.218;6.576;2023-12-20T01:41:03;10.10;99.90
58554;DHT22;48119;53.218;6.576;2023-12-20T01:43:30;10.10;99.90
58554;DHT22;48119;53.218;6.576;2023-12-20T01:45:59;10.20;99.90
58554;DHT22;48119;53.218;6.576;2023-12-20T01:48:25;10.10;99.90
58554;DHT22;48119;53.218;6.576;2023-12-20T01:50:53;10.10;99.90
58554;DHT22;48119;53.218;6.576;2023-12-20T01:53:21;10.10;99.90
58554;DHT22;48119;53.218;6.576;2023-12-20T01:55:47;10.10;99.90
58554;DHT22;48119;53.218;6.576;2023-12-20T01:58:14;10.10;99.90
58554;DHT22;48119;53.218;6.576;2023-12-20T02:00:41;10.10;99.90
58554;DHT22;48119;53.218;6.576;2023-12-20T02:03:06;10.10;99.90
58554;DHT22;48119;53.218;6.576;2023-12-20T02:05:35;10.10;99.90
58554;DHT22;48119;53.218;6.576;2023-12-20T02:08:01;10.10;99.90
58554;DHT22;48119;53.218;6.576;2023-12-20T02:10:27;10.10;99.90
58554;DHT22;48119;53.218;6.576;2023-12-20T02:12:53;10.00;99.90
58554;DHT22;48119;53.218;6.576;2023-12-20T02:15:19;10.00;99.90
58554;DHT22;48119;53.218;6.576;2023-12-20T02:17:46;10.10;99.90
58554;DHT22;48119;53.218;6.576;2023-12-20T02:20:12;10.10;99.90
58554;DHT22;48119;53.218;6.576;2023-12-20T02:22:38;10.10;99.90
58554;DHT22;48119;53.218;6.576;2023-12-20T02:25:04;10.10;99.90
58554;DHT22;48119;53.218;6.576;2023-12-20T02:27:30;10.10;99.90
58554;DHT22;48119;53.218;6.576;2023-12-20T02:29:56;10.10;99.90
58554;DHT22;48119;53.218;6.576;2023-12-20T02:32:23;10.10;99.90
58554;DHT22;48119;53.218;6.576;2023-12-20T02:34:51;10.10;99.90
58554;DHT22;48119;53.218;6.576;2023-12-20T02:37:17;10.10;99.90
58554;DHT22;48119;53.218;6.576;2023-12-20T02:39:43;10.10;99.90
58554;DHT22;48119;53.218;6.576;2023-12-20T02:42:09;10.10;99.90
58554;DHT22;48119;53.218;6.576;2023-12-20T02:44:34;10.10;99.90
58554;DHT22;48119;53.218;6.576;2023-12-20T02:47:00;10.10;99.90
58554;DHT22;48119;53.218;6.576;2023-12-20T02:49:26;10.10;99.90
58554;DHT22;48119;53.218;6.576;2023-12-20T02:51:51;10.00;99.90
58554;DHT22;48119;53.218;6.576;2023-12-20T02:54:17;10.00;99.90
58554;DHT22;48119;53.218;6.576;2023-12-20T02:56:43;10.00;99.90
58554;DHT22;48119;53.218;6.576;2023-12-20T02:59:09;10.00;99.90
58554;DHT22;48119;53.218;6.576;2023-12-20T03:01:35;10.10;99.90
58554;DHT22;48119;53.218;6.576;2023-12-20T03:04:06;10.10;99.90
58554;DHT22;48119;53.218;6.576;2023-12-20T03:06:32;10.10;99.90
58554;DHT22;48119;53.218;6.576;2023-12-20T03:08:58;10.10;99.90
58554;DHT22;48119;53.218;6.576;2023-12-20T03:11:27;10.10;99.90
58554;DHT22;48119;53.218;6.576;2023-12-20T03:13:53;10.10;99.90
58554;DHT22;48119;53.218;6.576;2023-12-20T03:16:18;10.10;99.90
58554;DHT22;48119;53.218;6.576;2023-12-20T03:18:44;10.10;99.90
58554;DHT22;48119;53.218;6.576;2023-12-20T03:21:10;10.10;99.90
58554;DHT22;48119;53.218;6.576;2023-12-20T03:23:36;10.10;99.90
58554;DHT22;48119;53.218;6.576;2023-12-20T03:26:01;10.10;99.90
58554;DHT22;48119;53.218;6.576;2023-12-20T03:28:27;10.20;99.90
58554;DHT22;48119;53.218;6.576;2023-12-20T03:30:53;10.20;99.90
58554;DHT22;48119;53.218;6.576;2023-12-20T03:33:19;10.20;99.90
58554;DHT22;48119;53.218;6.576;2023-12-20T03:35:45;10.20;99.90
58554;DHT22;48119;53.218;6.576;2023-12-20T03:38:10;10.20;99.90
58554;DHT22;48119;53.218;6.576;2023-12-20T03:40:36;10.20;99.90
58554;DHT22;48119;53.218;6.576;2023-12-20T03:43:02;10.20;99.90
58554;DHT22;48119;53.218;6.576;2023-12-20T03:45:27;10.20;99.90
58554;DHT22;48119;53.218;6.576;2023-12-20T03:47:53;10.20;99.90
58554;DHT22;48119;53.218;6.576;2023-12-20T03:50:23;10.20;99.90
58554;DHT22;48119;53.218;6.576;2023-12-20T03:52:49;10.20;99.90
58554;DHT22;48119;53.218;6.576;2023-12-20T03:55:15;10.10;99.90
58554;DHT22;48119;53.218;6.576;2023-12-20T03:57:41;10.10;99.90
58554;DHT22;48119;53.218;6.576;2023-12-20T04:00:10;10.20;99.90
58554;DHT22;48119;53.218;6.576;2023-12-20T04:02:40;10.20;99.90
58554;DHT22;48119;53.218;6.576;2023-12-20T04:05:06;10.20;99.90
58554;DHT22;48119;53.218;6.576;2023-12-20T04:07:35;10.20;99.90
58554;DHT22;48119;53.218;6.576;2023-12-20T04:10:01;10.20;99.90
58554;DHT22;48119;53.218;6.576;2023-12-20T04:12:30;10.20;99.90
58554;DHT22;48119;53.218;6.576;2023-12-20T04:14:57;10.20;99.90
58554;DHT22;48119;53.218;6.576;2023-12-20T04:17:22;10.20;99.90
58554;DHT22;48119;53.218;6.576;2023-12-20T04:19:51;10.20;99.90
58554;DHT22;48119;53.218;6.576;2023-12-20T04:22:18;10.20;99.90
58554;DHT22;48119;53.218;6.576;2023-12-20T04:24:44;10.20;99.90
58554;DHT22;48119;53.218;6.576;2023-12-20T04:27:11;10.20;99.90
58554;DHT22;48119;53.218;6.576;2023-12-20T04:29:38;10.20;99.90
58554;DHT22;48119;53.218;6.576;2023-12-20T04:32:04;10.20;99.90
58554;DHT22;48119;53.218;6.576;2023-12-20T04:34:30;10.20;99.90
58554;DHT22;48119;53.218;6.576;2023-12-20T04:36:56;10.30;99.90
58554;DHT22;48119;53.218;6.576;2023-12-20T04:39:22;10.20;99.90
58554;DHT22;48119;53.218;6.576;2023-12-20T04:41:47;10.20;99.90
58554;DHT22;48119;53.218;6.576;2023-12-20T04:44:16;10.20;99.90
58554;DHT22;48119;53.218;6.576;2023-12-20T04:46:42;10.20;99.90
58554;DHT22;48119;53.218;6.576;2023-12-20T04:49:08;10.20;99.90
58554;DHT22;48119;53.218;6.576;2023-12-20T04:51:34;10.30;99.90
58554;DHT22;48119;53.218;6.576;2023-12-20T04:54:00;10.30;99.90
58554;DHT22;48119;53.218;6.576;2023-12-20T04:56:26;10.30;99.90
58554;DHT22;48119;53.218;6.576;2023-12-20T04:58:52;10.30;99.90
58554;DHT22;48119;53.218;6.576;2023-12-20T05:01:17;10.30;99.90
58554;DHT22;48119;53.218;6.576;2023-12-20T05:03:43;10.30;99.90
58554;DHT22;48119;53.218;6.576;2023-12-20T05:06:10;10.30;99.90
58554;DHT22;48119;53.218;6.576;2023-12-20T05:08:35;10.30;99.90
58554;DHT22;48119;53.218;6.576;2023-12-20T05:11:01;10.30;99.90
58554;DHT22;48119;53.218;6.576;2023-12-20T05:13:27;10.30;99.90
58554;DHT22;48119;53.218;6.576;2023-12-20T05:15:53;10.40;99.90
58554;DHT22;48119;53.218;6.576;2023-12-20T05:18:20;10.40;99.90
58554;DHT22;48119;53.218;6.576;2023-12-20T05:20:45;10.40;99.90
58554;DHT22;48119;53.218;6.576;2023-12-20T05:23:11;10.40;99.90
58554;DHT22;48119;53.218;6.576;2023-12-20T05:25:38;10.40;99.90
58554;DHT22;48119;53.218;6.576;2023-12-20T05:28:04;10.40;99.90
58554;DHT22;48119;53.218;6.576;2023-12-20T05:30:30;10.40;99.90
58554;DHT22;48119;53.218;6.576;2023-12-20T05:32:56;10.40;99.90
58554;DHT22;48119;53.218;6.576;2023-12-20T05:35:22;10.40;99.90
58554;DHT22;48119;53.218;6.576;2023-12-20T05:37:49;10.40;99.90
58554;DHT22;48119;53.218;6.576;2023-12-20T05:40:15;10.50;99.90
58554;DHT22;48119;53.218;6.576;2023-12-20T05:42:42;10.50;99.90
58554;DHT22;48119;53.218;6.576;2023-12-20T05:45:09;10.50;99.90
58554;DHT22;48119;53.218;6.576;2023-12-20T05:47:35;10.50;99.90
58554;DHT22;48119;53.218;6.576;2023-12-20T05:50:00;10.50;99.90
58554;DHT22;48119;53.218;6.576;2023-12-20T05:52:26;10.50;99.90
58554;DHT22;48119;53.218;6.576;2023-12-20T05:54:52;10.50;99.90
58554;DHT22;48119;53.218;6.576;2023-12-20T05:57:18;10.50;99.90
58554;DHT22;48119;53.218;6.576;2023-12-20T05:59:46;10.50;99.90
58554;DHT22;48119;53.218;6.576;2023-12-20T06:02:12;10.50;99.90
58554;DHT22;48119;53.218;6.576;2023-12-20T06:04:42;10.50;99.90
58554;DHT22;48119;53.218;6.576;2023-12-20T06:07:08;10.50;99.90
58554;DHT22;48119;53.218;6.576;2023-12-20T06:09:37;10.50;99.90
58554;DHT22;48119;53.218;6.576;2023-12-20T06:12:03;10.50;99.90
58554;DHT22;48119;53.218;6.576;2023-12-20T06:14:28;10.50;99.90
58554;DHT22;48119;53.218;6.576;2023-12-20T06:16:56;10.50;99.90
58554;DHT22;48119;53.218;6.576;2023-12-20T06:19:22;10.50;99.90
58554;DHT22;48119;53.218;6.576;2023-12-20T06:21:48;10.50;99.90
58554;DHT22;48119;53.218;6.576;2023-12-20T06:24:14;10.50;99.90
58554;DHT22;48119;53.218;6.576;2023-12-20T06:26:39;10.50;99.90
58554;DHT22;48119;53.218;6.576;2023-12-20T06:29:05;10.50;99.90
58554;DHT22;48119;53.218;6.576;2023-12-20T06:31:31;10.60;99.90
58554;DHT22;48119;53.218;6.576;2023-12-20T06:33:58;10.60;99.90
58554;DHT22;48119;53.218;6.576;2023-12-20T06:36:28;10.60;99.90
58554;DHT22;48119;53.218;6.576;2023-12-20T06:38:54;10.60;99.90
58554;DHT22;48119;53.218;6.576;2023-12-20T06:41:20;10.60;99.90
58554;DHT22;48119;53.218;6.576;2023-12-20T06:43:45;10.60;99.90
58554;DHT22;48119;53.218;6.576;2023-12-20T06:46:12;10.60;99.90
58554;DHT22;48119;53.218;6.576;2023-12-20T06:48:39;10.60;99.90
58554;DHT22;48119;53.218;6.576;2023-12-20T06:51:10;10.60;99.90
58554;DHT22;48119;53.218;6.576;2023-12-20T06:53:36;10.60;99.90
58554;DHT22;48119;53.218;6.576;2023-12-20T06:56:02;10.60;99.90
58554;DHT22;48119;53.218;6.576;2023-12-20T06:58:28;10.60;99.90
58554;DHT22;48119;53.218;6.576;2023-12-20T07:00:53;10.60;99.90
58554;DHT22;48119;53.218;6.576;2023-12-20T07:03:19;10.60;99.90
58554;DHT22;48119;53.218;6.576;2023-12-20T07:05:45;10.60;99.90
58554;DHT22;48119;53.218;6.576;2023-12-20T07:08:11;10.70;99.90
58554;DHT22;48119;53.218;6.576;2023-12-20T07:10:39;10.60;99.90
58554;DHT22;48119;53.218;6.576;2023-12-20T07:13:05;10.70;99.90
58554;DHT22;48119;53.218;6.576;2023-12-20T07:15:31;10.70;99.90
58554;DHT22;48119;53.218;6.576;2023-12-20T07:17:59;10.70;99.90
58554;DHT22;48119;53.218;6.576;2023-12-20T07:20:26;10.70;99.90
58554;DHT22;48119;53.218;6.576;2023-12-20T07:22:52;10.70;99.90
58554;DHT22;48119;53.218;6.576;2023-12-20T07:25:17;10.70;99.90
58554;DHT22;48119;53.218;6.576;2023-12-20T07:27:43;10.70;99.90
58554;DHT22;48119;53.218;6.576;2023-12-20T07:30:09;10.70;99.90
58554;DHT22;48119;53.218;6.576;2023-12-20T07:32:35;10.70;99.90
58554;DHT22;48119;53.218;6.576;2023-12-20T07:35:01;10.70;99.90
58554;DHT22;48119;53.218;6.576;2023-12-20T07:37:28;10.70;99.90
58554;DHT22;48119;53.218;6.576;2023-12-20T07:39:54;10.70;99.90
58554;DHT22;48119;53.218;6.576;2023-12-20T07:42:19;10.70;99.90
58554;DHT22;48119;53.218;6.576;2023-12-20T07:44:47;10.70;99.90
58554;DHT22;48119;53.218;6.576;2023-12-20T07:47:13;10.70;99.90
58554;DHT22;48119;53.218;6.576;2023-12-20T07:49:42;10.70;99.90
58554;DHT22;48119;53.218;6.576;2023-12-20T07:52:08;10.70;99.90
58554;DHT22;48119;53.218;6.576;2023-12-20T07:54:34;10.70;99.90
58554;DHT22;48119;53.218;6.576;2023-12-20T07:57:00;10.70;99.90
58554;DHT22;48119;53.218;6.576;2023-12-20T07:59:25;10.70;99.90
58554;DHT22;48119;53.218;6.576;2023-12-20T08:01:51;10.70;99.90
58554;DHT22;48119;53.218;6.576;2023-12-20T08:04:17;10.70;99.90
58554;DHT22;48119;53.218;6.576;2023-12-20T08:06:42;10.70;99.90
58554;DHT22;48119;53.218;6.576;2023-12-20T08:09:08;10.70;99.90
58554;DHT22;48119;53.218;6.576;2023-12-20T08:11:34;10.70;99.90
58554;DHT22;48119;53.218;6.576;2023-12-20T08:14:00;10.70;99.90
58554;DHT22;48119;53.218;6.576;2023-12-20T08:16:26;10.70;99.90
58554;DHT22;48119;53.218;6.576;2023-12-20T08:18:51;10.70;99.90
58554;DHT22;48119;53.218;6.576;2023-12-20T08:21:17;10.70;99.90
58554;DHT22;48119;53.218;6.576;2023-12-20T08:23:46;10.70;99.90
58554;DHT22;48119;53.218;6.576;2023-12-20T08:26:13;10.70;99.90
58554;DHT22;48119;53.218;6.576;2023-12-20T08:28:41;10.70;99.90
58554;DHT22;48119;53.218;6.576;2023-12-20T08:31:06;10.70;99.90
58554;DHT22;48119;53.218;6.576;2023-12-20T08:33:38;10.70;99.90
58554;DHT22;48119;53.218;6.576;2023-12-20T08:36:04;10.70;99.90
58554;DHT22;48119;53.218;6.576;2023-12-20T08:38:31;10.70;99.90
58554;DHT22;48119;53.218;6.576;2023-12-20T08:40:56;10.60;99.90
58554;DHT22;48119;53.218;6.576;2023-12-20T08:43:22;10.70;99.90
58554;DHT22;48119;53.218;6.576;2023-12-20T08:45:48;10.60;99.90
58554;DHT22;48119;53.218;6.576;2023-12-20T08:48:14;10.50;99.90
58554;DHT22;48119;53.218;6.576;2023-12-20T08:50:40;10.40;99.90
58554;DHT22;48119;53.218;6.576;2023-12-20T08:53:05;10.40;99.90
58554;DHT22;48119;53.218;6.576;2023-12-20T08:55:31;10.30;99.90
58554;DHT22;48119;53.218;6.576;2023-12-20T08:57:57;10.20;99.90
58554;DHT22;48119;53.218;6.576;2023-12-20T09:00:23;10.10;99.90
58554;DHT22;48119;53.218;6.576;2023-12-20T09:02:51;10.00;99.90
58554;DHT22;48119;53.218;6.576;2023-12-20T09:05:17;9.90;99.90
58554;DHT22;48119;53.218;6.576;2023-12-20T09:07:42;10.00;99.90
58554;DHT22;48119;53.218;6.576;2023-12-20T09:10:08;9.90;99.90
58554;DHT22;48119;53.218;6.576;2023-12-20T09:12:34;9.90;99.90
58554;DHT22;48119;53.218;6.576;2023-12-20T09:15:03;9.80;99.90
58554;DHT22;48119;53.218;6.576;2023-12-20T09:17:29;9.80;99.90
58554;DHT22;48119;53.218;6.576;2023-12-20T09:19:55;9.70;99.90
58554;DHT22;48119;53.218;6.576;2023-12-20T09:22:21;9.80;99.90
58554;DHT22;48119;53.218;6.576;2023-12-20T09:24:47;9.80;99.90
58554;DHT22;48119;53.218;6.576;2023-12-20T09:27:12;9.80;99.90
58554;DHT22;48119;53.218;6.576;2023-12-20T09:29:41;9.80;99.90
58554;DHT22;48119;53.218;6.576;2023-12-20T09:32:07;9.80;99.90
58554;DHT22;48119;53.218;6.576;2023-12-20T09:34:33;9.80;99.90
58554;DHT22;48119;53.218;6.576;2023-12-20T09:36:59;9.80;99.90
58554;DHT22;48119;53.218;6.576;2023-12-20T09:39:25;9.80;99.90
58554;DHT22;48119;53.218;6.576;2023-12-20T09:42:01;9.80;99.90
58554;DHT22;48119;53.218;6.576;2023-12-20T09:44:30;9.80;99.90
58554;DHT22;48119;53.218;6.576;2023-12-20T09:47:02;9.80;99.90
58554;DHT22;48119;53.218;6.576;2023-12-20T09:49:37;9.90;99.90
58554;DHT22;48119;53.218;6.576;2023-12-20T09:52:05;9.90;99.90
58554;DHT22;48119;53.218;6.576;2023-12-20T09:54:33;9.80;99.90
58554;DHT22;48119;53.218;6.576;2023-12-20T09:56:59;9.90;99.90
58554;DHT22;48119;53.218;6.576;2023-12-20T09:59:24;9.90;99.90
58554;DHT22;48119;53.218;6.576;2023-12-20T10:01:51;9.90;99.90
58554;DHT22;48119;53.218;6.576;2023-12-20T10:04:20;9.90;99.90
58554;DHT22;48119;53.218;6.576;2023-12-20T10:06:46;9.90;99.90
58554;DHT22;48119;53.218;6.576;2023-12-20T10:09:12;9.90;99.90
58554;DHT22;48119;53.218;6.576;2023-12-20T10:11:39;9.90;99.90
58554;DHT22;48119;53.218;6.576;2023-12-20T10:14:05;10.00;99.90
58554;DHT22;48119;53.218;6.576;2023-12-20T10:16:32;10.00;99.90
58554;DHT22;48119;53.218;6.576;2023-12-20T10:18:59;10.10;99.90
58554;DHT22;48119;53.218;6.576;2023-12-20T10:21:26;10.10;99.90
58554;DHT22;48119;53.218;6.576;2023-12-20T10:23:54;10.10;99.90
58554;DHT22;48119;53.218;6.576;2023-12-20T10:26:20;10.20;99.90
58554;DHT22;48119;53.218;6.576;2023-12-20T10:28:49;10.10;99.90
58554;DHT22;48119;53.218;6.576;2023-12-20T10:31:34;10.10;99.90
58554;DHT22;48119;53.218;6.576;2023-12-20T10:34:05;10.10;99.90
58554;DHT22;48119;53.218;6.576;2023-12-20T10:36:32;10.10;99.90
58554;DHT22;48119;53.218;6.576;2023-12-20T10:38:59;10.10;99.90
58554;DHT22;48119;53.218;6.576;2023-12-20T10:41:32;10.10;99.90
58554;DHT22;48119;53.218;6.576;2023-12-20T10:44:02;10.10;99.90
58554;DHT22;48119;53.218;6.576;2023-12-20T10:46:29;10.10;99.90
58554;DHT22;48119;53.218;6.576;2023-12-20T10:48:56;10.10;99.90
58554;DHT22;48119;53.218;6.576;2023-12-20T10:51:23;10.10;99.90
58554;DHT22;48119;53.218;6.576;2023-12-20T10:53:52;10.10;99.90
58554;DHT22;48119;53.218;6.576;2023-12-20T10:56:19;10.10;99.90
58554;DHT22;48119;53.218;6.576;2023-12-20T10:58:46;10.10;99.90
58554;DHT22;48119;53.218;6.576;2023-12-20T11:01:14;10.10;99.90
58554;DHT22;48119;53.218;6.576;2023-12-20T11:03:51;10.10;99.90
58554;DHT22;48119;53.218;6.576;2023-12-20T11:06:32;10.10;99.90
58554;DHT22;48119;53.218;6.576;2023-12-20T11:11:46;10.10;99.90
58554;DHT22;48119;53.218;6.576;2023-12-20T11:14:20;10.10;99.90
58554;DHT22;48119;53.218;6.576;2023-12-20T11:16:48;10.20;99.90
58554;DHT22;48119;53.218;6.576;2023-12-20T11:19:13;10.20;99.90
58554;DHT22;48119;53.218;6.576;2023-12-20T11:21:40;10.20;99.90
58554;DHT22;48119;53.218;6.576;2023-12-20T11:24:06;10.20;99.90
58554;DHT22;48119;53.218;6.576;2023-12-20T11:26:34;10.20;99.90
58554;DHT22;48119;53.218;6.576;2023-12-20T11:29:31;10.20;99.90
58554;DHT22;48119;53.218;6.576;2023-12-20T11:32:00;10.30;99.90
58554;DHT22;48119;53.218;6.576;2023-12-20T11:34:33;10.30;99.90
58554;DHT22;48119;53.218;6.576;2023-12-20T11:37:02;10.30;99.90
58554;DHT22;48119;53.218;6.576;2023-12-20T11:39:28;10.30;99.90
58554;DHT22;48119;53.218;6.576;2023-12-20T11:41:56;10.30;99.90
58554;DHT22;48119;53.218;6.576;2023-12-20T11:44:30;10.30;99.90
58554;DHT22;48119;53.218;6.576;2023-12-20T11:46:56;10.40;99.90
58554;DHT22;48119;53.218;6.576;2023-12-20T11:49:25;10.40;99.90
58554;DHT22;48119;53.218;6.576;2023-12-20T11:51:51;10.40;99.90
58554;DHT22;48119;53.218;6.576;2023-12-20T11:54:17;10.40;99.90
58554;DHT22;48119;53.218;6.576;2023-12-20T11:56:42;10.40;99.90
58554;DHT22;48119;53.218;6.576;2023-12-20T11:59:08;10.40;99.90
58554;DHT22;48119;53.218;6.576;2023-12-20T12:01:34;10.40;99.90
58554;DHT22;48119;53.218;6.576;2023-12-20T12:04:05;10.40;99.90
58554;DHT22;48119;53.218;6.576;2023-12-20T12:06:30;10.40;99.90
58554;DHT22;48119;53.218;6.576;2023-12-20T12:08:56;10.50;99.90
58554;DHT22;48119;53.218;6.576;2023-12-20T12:11:23;10.50;99.90
58554;DHT22;48119;53.218;6.576;2023-12-20T12:13:49;10.40;99.90
58554;DHT22;48119;53.218;6.576;2023-12-20T12:16:19;10.40;99.90
58554;DHT22;48119;53.218;6.576;2023-12-20T12:18:45;10.50;99.90
58554;DHT22;48119;53.218;6.576;2023-12-20T12:21:19;10.50;99.90
58554;DHT22;48119;53.218;6.576;2023-12-20T12:23:46;10.50;99.90
58554;DHT22;48119;53.218;6.576;2023-12-20T12:26:12;10.50;99.90
58554;DHT22;48119;53.218;6.576;2023-12-20T12:28:40;10.50;99.90
58554;DHT22;48119;53.218;6.576;2023-12-20T12:31:07;10.50;99.90
58554;DHT22;48119;53.218;6.576;2023-12-20T12:33:33;10.50;99.90
58554;DHT22;48119;53.218;6.576;2023-12-20T12:35:59;10.50;99.90
58554;DHT22;48119;53.218;6.576;2023-12-20T12:38:25;10.50;99.90
58554;DHT22;48119;53.218;6.576;2023-12-20T12:40:51;10.50;99.90
58554;DHT22;48119;53.218;6.576;2023-12-20T12:43:19;10.50;99.90
58554;DHT22;48119;53.218;6.576;2023-12-20T12:45:45;10.50;99.90
58554;DHT22;48119;53.218;6.576;2023-12-20T12:48:10;10.50;99.90
58554;DHT22;48119;53.218;6.576;2023-12-20T12:50:36;10.50;99.90
58554;DHT22;48119;53.218;6.576;2023-12-20T12:53:02;10.50;99.90
58554;DHT22;48119;53.218;6.576;2023-12-20T12:55:28;10.50;99.90
58554;DHT22;48119;53.218;6.576;2023-12-20T12:57:54;10.50;99.90
58554;DHT22;48119;53.218;6.576;2023-12-20T13:00:20;10.60;99.90
58554;DHT22;48119;53.218;6.576;2023-12-20T13:02:49;10.60;99.90
58554;DHT22;48119;53.218;6.576;2023-12-20T13:05:15;10.60;99.90
58554;DHT22;48119;53.218;6.576;2023-12-20T13:07:41;10.60;99.90
58554;DHT22;48119;53.218;6.576;2023-12-20T13:10:10;10.60;99.90
58554;DHT22;48119;53.218;6.576;2023-12-20T13:12:36;10.60;99.90
58554;DHT22;48119;53.218;6.576;2023-12-20T13:15:03;10.60;99.90
58554;DHT22;48119;53.218;6.576;2023-12-20T13:17:32;10.70;99.90
58554;DHT22;48119;53.218;6.576;2023-12-20T13:19:58;10.60;99.90
58554;DHT22;48119;53.218;6.576;2023-12-20T13:22:25;10.60;99.90
58554;DHT22;48119;53.218;6.576;2023-12-20T13:24:50;10.60;99.90
58554;DHT22;48119;53.218;6.576;2023-12-20T13:27:16;10.60;99.90
58554;DHT22;48119;53.218;6.576;2023-12-20T13:29:42;10.60;99.90
58554;DHT22;48119;53.218;6.576;2023-12-20T13:32:08;10.60;99.90
58554;DHT22;48119;53.218;6.576;2023-12-20T13:34:33;10.50;99.90
58554;DHT22;48119;53.218;6.576;2023-12-20T13:36:59;10.50;99.90
58554;DHT22;48119;53.218;6.576;2023-12-20T13:39:25;10.50;99.90
58554;DHT22;48119;53.218;6.576;2023-12-20T13:41:51;10.50;99.90
58554;DHT22;48119;53.218;6.576;2023-12-20T13:44:16;10.50;99.90
58554;DHT22;48119;53.218;6.576;2023-12-20T13:46:42;10.50;99.90
58554;DHT22;48119;53.218;6.576;2023-12-20T13:49:08;10.50;99.90
58554;DHT22;48119;53.218;6.576;2023-12-20T13:51:34;10.60;99.90
58554;DHT22;48119;53.218;6.576;2023-12-20T13:54:00;10.60;99.90
58554;DHT22;48119;53.218;6.576;2023-12-20T13:56:26;10.60;99.90
58554;DHT22;48119;53.218;6.576;2023-12-20T13:58:51;10.50;99.90
58554;DHT22;48119;53.218;6.576;2023-12-20T14:01:17;10.60;99.90
58554;DHT22;48119;53.218;6.576;2023-12-20T14:03:43;10.50;99.90
58554;DHT22;48119;53.218;6.576;2023-12-20T14:06:09;10.50;99.90
58554;DHT22;48119;53.218;6.576;2023-12-20T14:08:34;10.50;99.90
58554;DHT22;48119;53.218;6.576;2023-12-20T14:11:01;10.50;99.90
58554;DHT22;48119;53.218;6.576;2023-12-20T14:13:27;10.50;99.90
58554;DHT22;48119;53.218;6.576;2023-12-20T14:15:53;10.40;99.90
58554;DHT22;48119;53.218;6.576;2023-12-20T14:18:20;10.40;99.90
58554;DHT22;48119;53.218;6.576;2023-12-20T14:20:46;10.40;99.90
58554;DHT22;48119;53.218;6.576;2023-12-20T14:23:13;10.40;99.90
58554;DHT22;48119;53.218;6.576;2023-12-20T14:25:41;10.40;99.90
58554;DHT22;48119;53.218;6.576;2023-12-20T14:28:07;10.40;99.90
58554;DHT22;48119;53.218;6.576;2023-12-20T14:30:33;10.40;99.90
58554;DHT22;48119;53.218;6.576;2023-12-20T14:33:00;10.30;99.90
58554;DHT22;48119;53.218;6.576;2023-12-20T14:35:26;10.30;99.90
58554;DHT22;48119;53.218;6.576;2023-12-20T14:37:51;10.30;99.90
58554;DHT22;48119;53.218;6.576;2023-12-20T14:40:19;10.30;99.90
58554;DHT22;48119;53.218;6.576;2023-12-20T14:42:45;10.30;99.90
58554;DHT22;48119;53.218;6.576;2023-12-20T14:45:12;10.30;99.90
58554;DHT22;48119;53.218;6.576;2023-12-20T14:47:39;10.20;99.90
58554;DHT22;48119;53.218;6.576;2023-12-20T14:50:06;10.20;99.90
58554;DHT22;48119;53.218;6.576;2023-12-20T14:52:33;10.20;99.90
58554;DHT22;48119;53.218;6.576;2023-12-20T14:55:00;10.20;99.90
58554;DHT22;48119;53.218;6.576;2023-12-20T14:57:26;10.20;99.90
58554;DHT22;48119;53.218;6.576;2023-12-20T14:59:52;10.20;99.90
58554;DHT22;48119;53.218;6.576;2023-12-20T15:02:18;10.20;99.90
58554;DHT22;48119;53.218;6.576;2023-12-20T15:04:44;10.10;99.90
58554;DHT22;48119;53.218;6.576;2023-12-20T15:07:10;10.20;99.90
58554;DHT22;48119;53.218;6.576;2023-12-20T15:09:35;10.20;99.90
58554;DHT22;48119;53.218;6.576;2023-12-20T15:12:01;10.20;99.90
58554;DHT22;48119;53.218;6.576;2023-12-20T15:14:27;10.20;99.90
58554;DHT22;48119;53.218;6.576;2023-12-20T15:16:54;10.20;99.90
58554;DHT22;48119;53.218;6.576;2023-12-20T15:19:21;10.20;99.90
58554;DHT22;48119;53.218;6.576;2023-12-20T15:21:47;10.20;99.90
58554;DHT22;48119;53.218;6.576;2023-12-20T15:24:13;10.20;99.90
58554;DHT22;48119;53.218;6.576;2023-12-20T15:26:43;10.20;99.90
58554;DHT22;48119;53.218;6.576;2023-12-20T15:29:10;10.20;99.90
58554;DHT22;48119;53.218;6.576;2023-12-20T15:31:45;10.20;99.90